sensor_id;sensor_type;location;lat;lon;timestamp;pressure;altitude;pressure_sealevel;temperature;humidity
31299;BME280;17927;52.350;13.402;2023-07-20T00:00:14;100664.78;;;21.90;53.53
31299;BME280;17927;52.350;13.402;2023-07-20T00:02:40;100670.28;;;21.90;53.96
31299;BME280;17927;52.350;13.402;2023-07-20T00:05:05;100670.53;;;21.89;54.06
31299;BME280;17927;52.350;13.402;2023-07-20T00:07:31;100669.91;;;21.87;54.19
31299;BME280;17927;52.350;13.402;2023-07-20T00:09:56;100670.34;;;21.84;53.74
31299;BME280;17927;52.350;13.402;2023-07-20T00:12:22;100675.84;;;21.84;54.27
31299;BME280;17927;52.350;13.402;2023-07-20T00:14:47;100670.75;;;21.81;54.26
31299;BME280;17927;52.350;13.402;2023-07-20T00:17:12;100681.16;;;21.79;53.87
31299;BME280;17927;52.350;13.402;2023-07-20T00:19:37;100670.38;;;21.77;54.39
31299;BME280;17927;52.350;13.402;2023-07-20T00:22:03;100667.84;;;21.75;54.06
31299;BME280;17927;52.350;13.402;2023-07-20T00:24:30;100667.00;;;21.75;54.48
31299;BME280;17927;52.350;13.402;2023-07-20T00:26:55;100665.31;;;21.74;54.59
31299;BME280;17927;52.350;13.402;2023-07-20T00:29:20;100671.03;;;21.72;54.31
31299;BME280;17927;52.350;13.402;2023-07-20T00:31:46;100675.69;;;21.72;54.20
31299;BME280;17927;52.350;13.402;2023-07-20T00:34:11;100668.72;;;21.69;54.33
31299;BME280;17927;52.350;13.402;2023-07-20T00:36:36;100664.28;;;21.68;54.84
31299;BME280;17927;52.350;13.402;2023-07-20T00:39:02;100670.84;;;21.67;54.38
31299;BME280;17927;52.350;13.402;2023-07-20T00:41:28;100670.84;;;21.67;54.36
31299;BME280;17927;52.350;13.402;2023-07-20T00:43:54;100674.88;;;21.65;54.76
31299;BME280;17927;52.350;13.402;2023-07-20T00:46:22;100672.13;;;21.65;54.62
31299;BME280;17927;52.350;13.402;2023-07-20T00:48:48;100668.75;;;21.63;54.91
31299;BME280;17927;52.350;13.402;2023-07-20T00:51:13;100662.44;;;21.62;54.56
31299;BME280;17927;52.350;13.402;2023-07-20T00:53:38;100668.13;;;21.60;54.90
31299;BME280;17927;52.350;13.402;2023-07-20T00:56:04;100668.97;;;21.61;54.90
31299;BME280;17927;52.350;13.402;2023-07-20T00:58:30;100670.66;;;21.62;55.02
31299;BME280;17927;52.350;13.402;2023-07-20T01:00:55;100670.03;;;21.60;54.74
31299;BME280;17927;52.350;13.402;2023-07-20T01:03:20;100672.13;;;21.58;54.82
31299;BME280;17927;52.350;13.402;2023-07-20T01:06:26;100675.09;;;21.56;55.34
31299;BME280;17927;52.350;13.402;2023-07-20T01:11:49;100679.13;;;21.54;55.07
31299;BME280;17927;52.350;13.402;2023-07-20T01:14:16;100681.03;;;21.53;55.07
31299;BME280;17927;52.350;13.402;2023-07-20T01:16:42;100679.13;;;21.54;55.44
31299;BME280;17927;52.350;13.402;2023-07-20T01:19:07;100676.59;;;21.52;55.35
31299;BME280;17927;52.350;13.402;2023-07-20T01:21:57;100675.97;;;21.50;55.74
31299;BME280;17927;52.350;13.402;2023-07-20T01:27:36;100683.84;;;21.40;55.67
31299;BME280;17927;52.350;13.402;2023-07-20T01:32:47;100679.16;;;21.40;55.66
31299;BME280;17927;52.350;13.402;2023-07-20T01:35:14;100685.72;;;21.39;55.89
31299;BME280;17927;52.350;13.402;2023-07-20T01:37:43;100680.22;;;21.39;55.56
31299;BME280;17927;52.350;13.402;2023-07-20T01:40:10;100679.16;;;21.40;55.93
31299;BME280;17927;52.350;13.402;2023-07-20T01:42:36;100674.53;;;21.41;55.66
31299;BME280;17927;52.350;13.402;2023-07-20T01:45:01;100681.09;;;21.40;56.12
31299;BME280;17927;52.350;13.402;2023-07-20T01:47:26;100675.59;;;21.40;56.03
31299;BME280;17927;52.350;13.402;2023-07-20T01:49:51;100670.09;;;21.40;55.86
31299;BME280;17927;52.350;13.402;2023-07-20T01:52:17;100673.03;;;21.38;55.91
31299;BME280;17927;52.350;13.402;2023-07-20T01:54:42;100666.72;;;21.38;55.85
31299;BME280;17927;52.350;13.402;2023-07-20T01:57:07;100666.72;;;21.38;56.10
31299;BME280;17927;52.350;13.402;2023-07-20T01:59:33;100664.16;;;21.36;56.05
31299;BME280;17927;52.350;13.402;2023-07-20T02:01:58;100660.59;;;21.36;56.09
31299;BME280;17927;52.350;13.402;2023-07-20T02:04:23;100662.72;;;21.34;56.02
31299;BME280;17927;52.350;13.402;2023-07-20T02:06:48;100662.09;;;21.32;55.88
31299;BME280;17927;52.350;13.402;2023-07-20T02:09:14;100662.50;;;21.28;55.68
31299;BME280;17927;52.350;13.402;2023-07-20T02:11:39;100664.44;;;21.28;55.67
31299;BME280;17927;52.350;13.402;2023-07-20T02:14:04;100676.69;;;21.25;55.66
31299;BME280;17927;52.350;13.402;2023-07-20T02:16:29;100669.94;;;21.21;55.99
31299;BME280;17927;52.350;13.402;2023-07-20T02:18:55;100664.88;;;21.18;55.83
31299;BME280;17927;52.350;13.402;2023-07-20T02:21:22;100671.84;;;21.14;55.43
31299;BME280;17927;52.350;13.402;2023-07-20T02:23:48;100668.69;;;21.10;55.48
31299;BME280;17927;52.350;13.402;2023-07-20T02:26:13;100663.84;;;21.06;55.57
31299;BME280;17927;52.350;13.402;2023-07-20T02:28:39;100668.31;;;21.00;55.54
31299;BME280;17927;52.350;13.402;2023-07-20T02:31:04;100665.13;;;20.96;55.53
31299;BME280;17927;52.350;13.402;2023-07-20T02:33:29;100668.09;;;20.95;55.52
31299;BME280;17927;52.350;13.402;2023-07-20T02:35:54;100669.56;;;20.91;55.67
31299;BME280;17927;52.350;13.402;2023-07-20T02:38:20;100668.53;;;20.85;55.37
31299;BME280;17927;52.350;13.402;2023-07-20T02:40:45;100689.22;;;20.81;55.38
31299;BME280;17927;52.350;13.402;2023-07-20T02:43:10;100677.38;;;20.74;55.91
31299;BME280;17927;52.350;13.402;2023-07-20T02:45:40;100669.34;;;20.65;55.83
31299;BME280;17927;52.350;13.402;2023-07-20T02:48:05;100669.59;;;20.57;56.22
31299;BME280;17927;52.350;13.402;2023-07-20T02:50:33;100679.50;;;20.51;56.31
31299;BME280;17927;52.350;13.402;2023-07-20T02:52:58;100685.00;;;20.45;56.40
31299;BME280;17927;52.350;13.402;2023-07-20T02:55:23;100686.47;;;20.41;56.25
31299;BME280;17927;52.350;13.402;2023-07-20T02:57:48;100683.50;;;20.35;56.21
31299;BME280;17927;52.350;13.402;2023-07-20T03:00:14;100694.28;;;20.30;56.57
31299;BME280;17927;52.350;13.402;2023-07-20T03:02:41;100695.50;;;20.28;56.55
31299;BME280;17927;52.350;13.402;2023-07-20T03:05:06;100702.28;;;20.25;56.44
31299;BME280;17927;52.350;13.402;2023-07-20T03:07:32;100705.00;;;20.25;56.64
31299;BME280;17927;52.350;13.402;2023-07-20T03:09:57;100704.16;;;20.24;56.85
31299;BME280;17927;52.350;13.402;2023-07-20T03:12:23;100703.53;;;20.22;56.55
31299;BME280;17927;52.350;13.402;2023-07-20T03:14:49;100710.06;;;20.21;56.82
31299;BME280;17927;52.350;13.402;2023-07-20T03:17:14;100710.06;;;20.21;56.72
31299;BME280;17927;52.350;13.402;2023-07-20T03:19:40;100711.97;;;20.21;56.91
31299;BME280;17927;52.350;13.402;2023-07-20T03:22:05;100718.31;;;20.21;57.28
31299;BME280;17927;52.350;13.402;2023-07-20T03:24:30;100717.03;;;20.24;57.33
31299;BME280;17927;52.350;13.402;2023-07-20T03:26:55;100719.56;;;20.26;57.46
31299;BME280;17927;52.350;13.402;2023-07-20T03:29:21;100724.00;;;20.27;57.71
31299;BME280;17927;52.350;13.402;2023-07-20T03:31:46;100724.00;;;20.27;57.91
31299;BME280;17927;52.350;13.402;2023-07-20T03:34:11;100718.31;;;20.28;58.29
31299;BME280;17927;52.350;13.402;2023-07-20T03:36:36;100717.25;;;20.29;58.14
31299;BME280;17927;52.350;13.402;2023-07-20T03:39:02;100720.66;;;20.31;58.66
31299;BME280;17927;52.350;13.402;2023-07-20T03:41:28;100721.25;;;20.33;58.91
31299;BME280;17927;52.350;13.402;2023-07-20T03:43:53;100713.03;;;20.33;58.55
31299;BME280;17927;52.350;13.402;2023-07-20T03:46:18;100717.47;;;20.34;58.62
31299;BME280;17927;52.350;13.402;2023-07-20T03:48:43;100725.09;;;20.39;58.98
31299;BME280;17927;52.350;13.402;2023-07-20T03:51:09;100728.03;;;20.44;58.68
31299;BME280;17927;52.350;13.402;2023-07-20T03:53:34;100720.84;;;20.50;58.57
31299;BME280;17927;52.350;13.402;2023-07-20T03:55:59;100710.94;;;20.56;58.58
31299;BME280;17927;52.350;13.402;2023-07-20T03:58:25;100724.69;;;20.62;58.82
31299;BME280;17927;52.350;13.402;2023-07-20T04:00:51;100721.72;;;20.71;58.78
31299;BME280;17927;52.350;13.402;2023-07-20T04:03:20;100724.88;;;20.74;58.62
31299;BME280;17927;52.350;13.402;2023-07-20T04:05:46;100727.25;;;20.77;58.60
31299;BME280;17927;52.350;13.402;2023-07-20T04:08:11;100726.81;;;20.80;58.23
31299;BME280;17927;52.350;13.402;2023-07-20T04:10:37;100722.16;;;20.81;58.18
31299;BME280;17927;52.350;13.402;2023-07-20T04:13:03;100732.72;;;20.84;58.48
31299;BME280;17927;52.350;13.402;2023-07-20T04:15:28;100728.94;;;20.85;58.39
31299;BME280;17927;52.350;13.402;2023-07-20T04:17:53;100730.63;;;20.86;58.01
31299;BME280;17927;52.350;13.402;2023-07-20T04:20:18;100727.66;;;20.88;58.53
31299;BME280;17927;52.350;13.402;2023-07-20T04:22:44;100730.19;;;20.89;58.54
31299;BME280;17927;52.350;13.402;2023-07-20T04:25:09;100725.53;;;20.90;58.52
31299;BME280;17927;52.350;13.402;2023-07-20T04:27:35;100733.56;;;20.91;58.56
31299;BME280;17927;52.350;13.402;2023-07-20T04:30:01;100736.31;;;20.91;58.70
31299;BME280;17927;52.350;13.402;2023-07-20T04:32:27;100738.22;;;20.91;58.33
31299;BME280;17927;52.350;13.402;2023-07-20T04:34:52;100741.81;;;20.91;58.76
31299;BME280;17927;52.350;13.402;2023-07-20T04:37:17;100737.16;;;20.92;58.82
31299;BME280;17927;52.350;13.402;2023-07-20T04:39:42;100736.09;;;20.93;58.46
31299;BME280;17927;52.350;13.402;2023-07-20T04:42:08;100738.84;;;20.93;58.51
31299;BME280;17927;52.350;13.402;2023-07-20T04:44:33;100745.81;;;20.95;58.65
31299;BME280;17927;52.350;13.402;2023-07-20T04:46:58;100740.13;;;20.97;58.95
31299;BME280;17927;52.350;13.402;2023-07-20T04:49:24;100734.41;;;20.98;59.16
31299;BME280;17927;52.350;13.402;2023-07-20T04:51:49;100736.94;;;21.00;59.06
31299;BME280;17927;52.350;13.402;2023-07-20T04:54:14;100735.69;;;21.03;58.75
31299;BME280;17927;52.350;13.402;2023-07-20T04:56:41;100733.97;;;21.08;59.15
31299;BME280;17927;52.350;13.402;2023-07-20T04:59:06;100733.56;;;21.11;59.15
31299;BME280;17927;52.350;13.402;2023-07-20T05:01:31;100741.78;;;21.18;59.14
31299;BME280;17927;52.350;13.402;2023-07-20T05:03:57;100748.13;;;21.25;59.21
31299;BME280;17927;52.350;13.402;2023-07-20T05:06:22;100745.56;;;21.30;59.49
31299;BME280;17927;52.350;13.402;2023-07-20T05:08:47;100742.78;;;21.37;59.58
31299;BME280;17927;52.350;13.402;2023-07-20T05:11:13;100741.31;;;21.41;59.29
31299;BME280;17927;52.350;13.402;2023-07-20T05:13:38;100744.25;;;21.47;59.05
31299;BME280;17927;52.350;13.402;2023-07-20T05:16:03;100753.72;;;21.51;59.06
31299;BME280;17927;52.350;13.402;2023-07-20T05:18:29;100749.50;;;21.55;59.25
31299;BME280;17927;52.350;13.402;2023-07-20T05:20:54;100751.81;;;21.58;59.22
31299;BME280;17927;52.350;13.402;2023-07-20T05:23:21;100756.69;;;21.63;59.24
31299;BME280;17927;52.350;13.402;2023-07-20T05:25:47;100754.97;;;21.68;58.70
31299;BME280;17927;52.350;13.402;2023-07-20T05:28:12;100761.75;;;21.72;58.55
31299;BME280;17927;52.350;13.402;2023-07-20T05:30:37;100752.44;;;21.73;59.01
31299;BME280;17927;52.350;13.402;2023-07-20T05:33:03;100742.06;;;21.75;58.88
31299;BME280;17927;52.350;13.402;2023-07-20T05:35:28;100750.72;;;21.79;58.50
31299;BME280;17927;52.350;13.402;2023-07-20T05:37:53;100746.91;;;21.80;58.45
31299;BME280;17927;52.350;13.402;2023-07-20T05:40:19;100751.97;;;21.83;58.58
31299;BME280;17927;52.350;13.402;2023-07-20T05:42:46;100748.56;;;21.88;58.51
31299;BME280;17927;52.350;13.402;2023-07-20T05:45:12;100751.53;;;21.93;58.10
31299;BME280;17927;52.350;13.402;2023-07-20T05:47:37;100757.19;;;21.98;58.28
31299;BME280;17927;52.350;13.402;2023-07-20T05:50:02;100761.81;;;22.04;58.31
31299;BME280;17927;52.350;13.402;2023-07-20T05:52:28;100767.28;;;22.11;58.59
31299;BME280;17927;52.350;13.402;2023-07-20T05:54:53;100766.41;;;22.17;58.06
31299;BME280;17927;52.350;13.402;2023-07-20T05:57:19;100764.91;;;22.21;58.46
31299;BME280;17927;52.350;13.402;2023-07-20T05:59:44;100768.28;;;22.24;58.15
31299;BME280;17927;52.350;13.402;2023-07-20T06:02:10;100775.03;;;22.28;57.77
31299;BME280;17927;52.350;13.402;2023-07-20T06:04:36;100773.97;;;22.29;57.46
31299;BME280;17927;52.350;13.402;2023-07-20T06:07:01;100775.66;;;22.30;57.01
31299;BME280;17927;52.350;13.402;2023-07-20T06:09:26;100766.53;;;22.29;57.02
31299;BME280;17927;52.350;13.402;2023-07-20T06:11:52;100771.22;;;22.29;56.44
31299;BME280;17927;52.350;13.402;2023-07-20T06:14:17;100776.91;;;22.27;56.57
31299;BME280;17927;52.350;13.402;2023-07-20T06:16:43;100776.09;;;22.27;56.49
31299;BME280;17927;52.350;13.402;2023-07-20T06:19:09;100770.59;;;22.27;56.32
31299;BME280;17927;52.350;13.402;2023-07-20T06:21:36;100774.59;;;22.31;56.74
31299;BME280;17927;52.350;13.402;2023-07-20T06:24:01;100790.00;;;22.39;56.82
31299;BME280;17927;52.350;13.402;2023-07-20T06:26:26;100794.63;;;22.45;56.46
31299;BME280;17927;52.350;13.402;2023-07-20T06:28:51;100784.63;;;22.50;56.42
31299;BME280;17927;52.350;13.402;2023-07-20T06:31:17;100783.31;;;22.60;56.70
31299;BME280;17927;52.350;13.402;2023-07-20T06:33:42;100773.94;;;22.68;56.22
31299;BME280;17927;52.350;13.402;2023-07-20T06:36:07;100781.47;;;22.79;56.60
31299;BME280;17927;52.350;13.402;2023-07-20T06:38:33;100780.38;;;22.87;56.15
31299;BME280;17927;52.350;13.402;2023-07-20T06:40:58;100778.84;;;22.91;55.65
31299;BME280;17927;52.350;13.402;2023-07-20T06:43:23;100783.91;;;22.94;55.83
31299;BME280;17927;52.350;13.402;2023-07-20T06:45:52;100787.28;;;22.96;55.54
31299;BME280;17927;52.350;13.402;2023-07-20T06:48:18;100798.53;;;22.94;55.02
31299;BME280;17927;52.350;13.402;2023-07-20T06:50:44;100799.81;;;22.92;55.02
31299;BME280;17927;52.350;13.402;2023-07-20T06:53:09;100787.13;;;22.91;54.75
31299;BME280;17927;52.350;13.402;2023-07-20T06:55:34;100796.63;;;22.95;55.17
31299;BME280;17927;52.350;13.402;2023-07-20T06:57:59;100802.06;;;23.02;54.92
31299;BME280;17927;52.350;13.402;2023-07-20T07:00:25;100796.72;;;23.07;54.99
31299;BME280;17927;52.350;13.402;2023-07-20T07:02:50;100807.28;;;23.10;54.72
31299;BME280;17927;52.350;13.402;2023-07-20T07:05:15;100799.88;;;23.10;54.07
31299;BME280;17927;52.350;13.402;2023-07-20T07:07:41;100805.16;;;23.12;53.89
31299;BME280;17927;52.350;13.402;2023-07-20T07:10:07;100791.31;;;23.19;54.38
31299;BME280;17927;52.350;13.402;2023-07-20T07:12:32;100791.06;;;23.27;53.77
31299;BME280;17927;52.350;13.402;2023-07-20T07:14:57;100790.78;;;23.35;53.69
31299;BME280;17927;52.350;13.402;2023-07-20T07:17:23;100795.38;;;23.41;53.07
31299;BME280;17927;52.350;13.402;2023-07-20T07:19:48;100800.22;;;23.46;53.24
31299;BME280;17927;52.350;13.402;2023-07-20T07:22:13;100798.91;;;23.49;53.02
31299;BME280;17927;52.350;13.402;2023-07-20T07:24:39;100796.75;;;23.51;52.80
31299;BME280;17927;52.350;13.402;2023-07-20T07:27:06;100806.66;;;23.59;53.10
31299;BME280;17927;52.350;13.402;2023-07-20T07:29:32;100802.91;;;23.71;52.71
31299;BME280;17927;52.350;13.402;2023-07-20T07:31:57;100801.69;;;23.86;52.43
31299;BME280;17927;52.350;13.402;2023-07-20T07:34:23;100811.25;;;24.02;52.25
31299;BME280;17927;52.350;13.402;2023-07-20T07:36:48;100806.88;;;24.13;52.25
31299;BME280;17927;52.350;13.402;2023-07-20T07:39:14;100804.91;;;24.20;51.82
31299;BME280;17927;52.350;13.402;2023-07-20T07:41:39;100808.19;;;24.29;51.35
31299;BME280;17927;52.350;13.402;2023-07-20T07:44:04;100808.91;;;24.36;50.95
31299;BME280;17927;52.350;13.402;2023-07-20T07:46:30;100809.06;;;24.41;50.59
31299;BME280;17927;52.350;13.402;2023-07-20T07:48:55;100804.25;;;24.48;50.39
31299;BME280;17927;52.350;13.402;2023-07-20T07:51:21;100813.53;;;24.54;49.80
31299;BME280;17927;52.350;13.402;2023-07-20T07:53:46;100811.97;;;24.58;49.90
31299;BME280;17927;52.350;13.402;2023-07-20T07:56:11;100817.03;;;24.61;49.38
31299;BME280;17927;52.350;13.402;2023-07-20T07:58:37;100824.88;;;24.65;49.38
31299;BME280;17927;52.350;13.402;2023-07-20T08:01:02;100818.88;;;24.68;49.44
31299;BME280;17927;52.350;13.402;2023-07-20T08:03:27;100822.47;;;24.68;48.75
31299;BME280;17927;52.350;13.402;2023-07-20T08:05:56;100815.66;;;24.71;48.80
31299;BME280;17927;52.350;13.402;2023-07-20T08:08:22;100816.03;;;24.74;48.52
31299;BME280;17927;52.350;13.402;2023-07-20T08:10:48;100820.59;;;24.81;48.54
31299;BME280;17927;52.350;13.402;2023-07-20T08:13:13;100820.75;;;24.86;48.29
31299;BME280;17927;52.350;13.402;2023-07-20T08:15:39;100812.34;;;24.92;48.04
31299;BME280;17927;52.350;13.402;2023-07-20T08:18:05;100820.53;;;24.99;47.71
31299;BME280;17927;52.350;13.402;2023-07-20T08:20:30;100825.31;;;25.04;47.85
31299;BME280;17927;52.350;13.402;2023-07-20T08:22:57;100823.78;;;25.08;47.70
31299;BME280;17927;52.350;13.402;2023-07-20T08:25:24;100826.53;;;25.08;47.19
31299;BME280;17927;52.350;13.402;2023-07-20T08:27:50;100839.13;;;25.04;46.63
31299;BME280;17927;52.350;13.402;2023-07-20T08:30:15;100835.41;;;24.98;46.41
31299;BME280;17927;52.350;13.402;2023-07-20T08:32:40;100838.16;;;24.98;46.55
31299;BME280;17927;52.350;13.402;2023-07-20T08:35:06;100844.06;;;25.02;46.54
31299;BME280;17927;52.350;13.402;2023-07-20T08:37:31;100848.28;;;25.04;46.34
31299;BME280;17927;52.350;13.402;2023-07-20T08:39:56;100835.44;;;25.10;46.35
31299;BME280;17927;52.350;13.402;2023-07-20T08:42:22;100837.94;;;25.12;45.99
31299;BME280;17927;52.350;13.402;2023-07-20T08:44:48;100843.47;;;25.12;45.73
31299;BME280;17927;52.350;13.402;2023-07-20T08:47:15;100843.72;;;25.10;45.65
31299;BME280;17927;52.350;13.402;2023-07-20T08:49:41;100845.88;;;25.08;45.36
31299;BME280;17927;52.350;13.402;2023-07-20T08:52:07;100839.13;;;25.04;45.62
31299;BME280;17927;52.350;13.402;2023-07-20T08:54:34;100846.34;;;25.05;45.03
31299;BME280;17927;52.350;13.402;2023-07-20T08:57:04;100840.59;;;25.06;45.24
31299;BME280;17927;52.350;13.402;2023-07-20T08:59:30;100838.91;;;25.05;45.38
31299;BME280;17927;52.350;13.402;2023-07-20T09:01:57;100839.50;;;25.07;45.35
31299;BME280;17927;52.350;13.402;2023-07-20T09:04:23;100846.72;;;25.08;45.52
31299;BME280;17927;52.350;13.402;2023-07-20T09:06:49;100845.88;;;25.08;45.29
31299;BME280;17927;52.350;13.402;2023-07-20T09:09:14;100846.03;;;25.13;45.74
31299;BME280;17927;52.350;13.402;2023-07-20T09:11:40;100841.47;;;25.19;45.14
31299;BME280;17927;52.350;13.402;2023-07-20T09:14:06;100835.94;;;25.19;44.84
31299;BME280;17927;52.350;13.402;2023-07-20T09:16:32;100837.22;;;25.16;44.62
31299;BME280;17927;52.350;13.402;2023-07-20T09:19:00;100841.47;;;25.19;44.47
31299;BME280;17927;52.350;13.402;2023-07-20T09:21:29;100847.34;;;25.22;44.44
31299;BME280;17927;52.350;13.402;2023-07-20T09:23:56;100842.28;;;25.19;44.04
31299;BME280;17927;52.350;13.402;2023-07-20T09:26:22;100840.50;;;25.13;43.68
31299;BME280;17927;52.350;13.402;2023-07-20T09:28:49;100855.00;;;25.08;43.74
31299;BME280;17927;52.350;13.402;2023-07-20T09:31:18;100855.09;;;25.02;43.88
31299;BME280;17927;52.350;13.402;2023-07-20T09:33:44;100848.88;;;24.95;44.06
31299;BME280;17927;52.350;13.402;2023-07-20T09:36:10;100851.47;;;24.89;44.14
31299;BME280;17927;52.350;13.402;2023-07-20T09:38:39;100855.31;;;24.88;44.42
31299;BME280;17927;52.350;13.402;2023-07-20T09:41:05;100849.81;;;24.88;44.25
31299;BME280;17927;52.350;13.402;2023-07-20T09:43:31;100848.88;;;24.95;44.38
31299;BME280;17927;52.350;13.402;2023-07-20T09:45:57;100846.81;;;25.02;44.00
31299;BME280;17927;52.350;13.402;2023-07-20T09:48:24;100838.41;;;25.08;43.93
31299;BME280;17927;52.350;13.402;2023-07-20T09:50:50;100839.16;;;25.16;44.09
31299;BME280;17927;52.350;13.402;2023-07-20T09:53:18;100836.63;;;25.26;44.67
31299;BME280;17927;52.350;13.402;2023-07-20T09:55:45;100841.25;;;25.44;44.54
31299;BME280;17927;52.350;13.402;2023-07-20T09:58:10;100832.59;;;25.64;45.05
31299;BME280;17927;52.350;13.402;2023-07-20T10:00:37;100831.13;;;25.86;43.79
31299;BME280;17927;52.350;13.402;2023-07-20T10:03:04;100830.59;;;26.00;42.96
31299;BME280;17927;52.350;13.402;2023-07-20T10:05:33;100828.53;;;26.08;41.97
31299;BME280;17927;52.350;13.402;2023-07-20T10:07:59;100836.72;;;26.14;42.22
31299;BME280;17927;52.350;13.402;2023-07-20T10:10:26;100833.81;;;26.21;41.96
31299;BME280;17927;52.350;13.402;2023-07-20T10:12:52;100836.78;;;26.32;42.03
31299;BME280;17927;52.350;13.402;2023-07-20T10:15:20;100833.13;;;26.43;41.57
31299;BME280;17927;52.350;13.402;2023-07-20T10:18:07;100825.03;;;26.53;41.29
31299;BME280;17927;52.350;13.402;2023-07-20T10:20:36;100825.13;;;26.58;40.18
31299;BME280;17927;52.350;13.402;2023-07-20T10:23:04;100820.41;;;26.59;40.01
31299;BME280;17927;52.350;13.402;2023-07-20T10:25:30;100828.97;;;26.57;40.01
31299;BME280;17927;52.350;13.402;2023-07-20T10:27:56;100824.03;;;26.59;40.10
31299;BME280;17927;52.350;13.402;2023-07-20T10:30:22;100823.03;;;26.66;40.51
31299;BME280;17927;52.350;13.402;2023-07-20T10:32:48;100832.63;;;26.75;40.42
31299;BME280;17927;52.350;13.402;2023-07-20T10:35:15;100829.47;;;26.83;40.34
31299;BME280;17927;52.350;13.402;2023-07-20T10:40:32;100832.06;;;26.90;39.76
31299;BME280;17927;52.350;13.402;2023-07-20T10:43:08;100835.69;;;26.90;39.97
31299;BME280;17927;52.350;13.402;2023-07-20T10:45:52;100836.53;;;26.91;39.59
31299;BME280;17927;52.350;13.402;2023-07-20T10:48:24;100834.25;;;26.88;39.86
31299;BME280;17927;52.350;13.402;2023-07-20T10:51:11;100835.94;;;26.89;39.43
31299;BME280;17927;52.350;13.402;2023-07-20T10:53:38;100840.38;;;26.90;39.62
31299;BME280;17927;52.350;13.402;2023-07-20T10:56:14;100834.69;;;26.97;39.03
31299;BME280;17927;52.350;13.402;2023-07-20T10:58:40;100835.97;;;27.06;39.61
31299;BME280;17927;52.350;13.402;2023-07-20T11:01:06;100835.28;;;27.16;38.98
31299;BME280;17927;52.350;13.402;2023-07-20T11:03:36;100823.16;;;27.22;38.53
31299;BME280;17927;52.350;13.402;2023-07-20T11:08:54;100832.75;;;27.31;39.12
31299;BME280;17927;52.350;13.402;2023-07-20T11:11:27;100829.97;;;27.31;38.87
31299;BME280;17927;52.350;13.402;2023-07-20T11:13:54;100832.41;;;27.28;38.74
31299;BME280;17927;52.350;13.402;2023-07-20T11:16:32;100837.88;;;27.23;38.84
31299;BME280;17927;52.350;13.402;2023-07-20T11:18:58;100849.16;;;27.16;38.96
31299;BME280;17927;52.350;13.402;2023-07-20T11:21:24;100848.19;;;27.10;38.82
31299;BME280;17927;52.350;13.402;2023-07-20T11:23:51;100843.09;;;27.02;38.66
31299;BME280;17927;52.350;13.402;2023-07-20T11:26:17;100854.84;;;26.92;38.43
31299;BME280;17927;52.350;13.402;2023-07-20T11:28:48;100860.66;;;26.79;38.45
31299;BME280;17927;52.350;13.402;2023-07-20T11:31:14;100859.03;;;26.66;38.80
31299;BME280;17927;52.350;13.402;2023-07-20T11:33:41;100854.13;;;26.56;38.92
31299;BME280;17927;52.350;13.402;2023-07-20T11:36:08;100858.13;;;26.48;39.15
31299;BME280;17927;52.350;13.402;2023-07-20T11:38:33;100857.47;;;26.41;39.53
31299;BME280;17927;52.350;13.402;2023-07-20T11:40:59;100860.38;;;26.34;39.71
31299;BME280;17927;52.350;13.402;2023-07-20T11:43:24;100860.28;;;26.29;39.90
31299;BME280;17927;52.350;13.402;2023-07-20T11:45:51;100860.03;;;26.31;40.05
31299;BME280;17927;52.350;13.402;2023-07-20T11:48:17;100851.00;;;26.35;40.08
31299;BME280;17927;52.350;13.402;2023-07-20T11:50:42;100851.66;;;26.42;40.43
31299;BME280;17927;52.350;13.402;2023-07-20T11:53:08;100849.13;;;26.53;40.67
31299;BME280;17927;52.350;13.402;2023-07-20T11:55:33;100846.88;;;26.67;40.79
31299;BME280;17927;52.350;13.402;2023-07-20T11:58:05;100845.75;;;26.80;40.63
31299;BME280;17927;52.350;13.402;2023-07-20T12:00:32;100846.28;;;26.94;40.39
31299;BME280;17927;52.350;13.402;2023-07-20T12:02:57;100857.03;;;27.07;40.82
31299;BME280;17927;52.350;13.402;2023-07-20T12:05:23;100840.84;;;27.16;40.23
31299;BME280;17927;52.350;13.402;2023-07-20T12:07:49;100844.25;;;27.23;39.93
31299;BME280;17927;52.350;13.402;2023-07-20T12:10:15;100847.72;;;27.30;39.71
31299;BME280;17927;52.350;13.402;2023-07-20T12:12:42;100852.31;;;27.42;39.34
31299;BME280;17927;52.350;13.402;2023-07-20T12:15:23;100840.56;;;27.52;39.22
31299;BME280;17927;52.350;13.402;2023-07-20T12:17:50;100838.94;;;27.39;40.21
31299;BME280;17927;52.350;13.402;2023-07-20T12:22:51;100845.66;;;27.77;40.03
31299;BME280;17927;52.350;13.402;2023-07-20T12:25:17;100846.94;;;27.91;39.43
31299;BME280;17927;52.350;13.402;2023-07-20T12:27:45;100844.03;;;28.03;39.39
31299;BME280;17927;52.350;13.402;2023-07-20T12:30:10;100846.28;;;28.06;38.59
31299;BME280;17927;52.350;13.402;2023-07-20T12:32:35;100843.19;;;28.03;38.04
31299;BME280;17927;52.350;13.402;2023-07-20T12:35:01;100853.63;;;27.95;37.43
31299;BME280;17927;52.350;13.402;2023-07-20T12:37:26;100846.88;;;27.86;37.62
31299;BME280;17927;52.350;13.402;2023-07-20T12:39:52;100856.22;;;27.80;37.68
31299;BME280;17927;52.350;13.402;2023-07-20T12:42:17;100847.34;;;27.78;37.97
31299;BME280;17927;52.350;13.402;2023-07-20T12:44:43;100847.34;;;27.78;38.05
31299;BME280;17927;52.350;13.402;2023-07-20T12:47:08;100854.28;;;27.80;37.76
31299;BME280;17927;52.350;13.402;2023-07-20T12:49:33;100842.53;;;27.95;39.03
31299;BME280;17927;52.350;13.402;2023-07-20T12:51:59;100840.00;;;28.33;39.62